sensor_id;sensor_type;location;lat;lon;timestamp;P1;durP1;ratioP1;P2;durP2;ratioP2
75512;SDS011;64090;49.770;18.760;2023-02-12T00:00:30;21.50;;;12.60;;
75512;SDS011;64090;49.770;18.760;2023-02-12T00:03:53;22.40;;;15.50;;
75512;SDS011;64090;49.770;18.760;2023-02-12T00:06:56;13.60;;;6.50;;
75512;SDS011;64090;49.770;18.760;2023-02-12T00:09:59;18.30;;;10.60;;
75512;SDS011;64090;49.770;18.760;2023-02-12T00:13:02;15.90;;;8.80;;
75512;SDS011;64090;49.770;18.760;2023-02-12T00:16:09;22.10;;;11.70;;
75512;SDS011;64090;49.770;18.760;2023-02-12T00:19:14;14.10;;;7.50;;
75512;SDS011;64090;49.770;18.760;2023-02-12T00:22:17;20.00;;;12.40;;
75512;SDS011;64090;49.770;18.760;2023-02-12T00:25:20;22.40;;;12.60;;
75512;SDS011;64090;49.770;18.760;2023-02-12T00:28:23;15.80;;;8.40;;
75512;SDS011;64090;49.770;18.760;2023-02-12T00:31:27;20.30;;;9.80;;
75512;SDS011;64090;49.770;18.760;2023-02-12T00:34:31;19.70;;;10.30;;
75512;SDS011;64090;49.770;18.760;2023-02-12T00:37:36;16.40;;;8.80;;
75512;SDS011;64090;49.770;18.760;2023-02-12T00:40:39;20.70;;;13.50;;
75512;SDS011;64090;49.770;18.760;2023-02-12T00:43:42;16.00;;;9.90;;
75512;SDS011;64090;49.770;18.760;2023-02-12T00:46:45;14.90;;;7.30;;
75512;SDS011;64090;49.770;18.760;2023-02-12T00:49:48;23.80;;;13.20;;
75512;SDS011;64090;49.770;18.760;2023-02-12T00:52:51;23.00;;;13.00;;
75512;SDS011;64090;49.770;18.760;2023-02-12T00:55:54;18.80;;;10.60;;
75512;SDS011;64090;49.770;18.760;2023-02-12T00:58:59;22.30;;;12.50;;
75512;SDS011;64090;49.770;18.760;2023-02-12T01:02:02;18.90;;;9.90;;
75512;SDS011;64090;49.770;18.760;2023-02-12T01:05:05;15.40;;;9.30;;
75512;SDS011;64090;49.770;18.760;2023-02-12T01:08:10;24.50;;;14.20;;
75512;SDS011;64090;49.770;18.760;2023-02-12T01:11:18;20.90;;;11.40;;
75512;SDS011;64090;49.770;18.760;2023-02-12T01:14:21;6.70;;;3.90;;
75512;SDS011;64090;49.770;18.760;2023-02-12T01:17:24;28.10;;;14.30;;
75512;SDS011;64090;49.770;18.760;2023-02-12T01:20:27;20.50;;;11.60;;
75512;SDS011;64090;49.770;18.760;2023-02-12T01:23:30;23.00;;;12.00;;
75512;SDS011;64090;49.770;18.760;2023-02-12T01:26:33;7.80;;;5.10;;
75512;SDS011;64090;49.770;18.760;2023-02-12T01:29:36;15.90;;;7.00;;
75512;SDS011;64090;49.770;18.760;2023-02-12T01:32:40;24.90;;;13.40;;
75512;SDS011;64090;49.770;18.760;2023-02-12T01:35:43;16.90;;;7.50;;
75512;SDS011;64090;49.770;18.760;2023-02-12T01:38:47;26.00;;;14.10;;
75512;SDS011;64090;49.770;18.760;2023-02-12T01:41:50;14.20;;;6.00;;
75512;SDS011;64090;49.770;18.760;2023-02-12T01:45:22;20.70;;;11.00;;
75512;SDS011;64090;49.770;18.760;2023-02-12T01:48:39;23.70;;;12.50;;
75512;SDS011;64090;49.770;18.760;2023-02-12T01:51:46;20.30;;;9.60;;
75512;SDS011;64090;49.770;18.760;2023-02-12T01:54:51;20.40;;;11.20;;
75512;SDS011;64090;49.770;18.760;2023-02-12T01:57:58;18.50;;;9.90;;
75512;SDS011;64090;49.770;18.760;2023-02-12T02:01:02;23.60;;;13.80;;
75512;SDS011;64090;49.770;18.760;2023-02-12T02:04:09;23.90;;;14.20;;
75512;SDS011;64090;49.770;18.760;2023-02-12T02:07:16;25.30;;;13.10;;
75512;SDS011;64090;49.770;18.760;2023-02-12T02:10:19;23.60;;;14.00;;
75512;SDS011;64090;49.770;18.760;2023-02-12T02:13:22;16.40;;;8.80;;
75512;SDS011;64090;49.770;18.760;2023-02-12T02:16:46;25.40;;;13.90;;
75512;SDS011;64090;49.770;18.760;2023-02-12T02:23:33;22.80;;;12.30;;
75512;SDS011;64090;49.770;18.760;2023-02-12T02:27:01;18.40;;;10.00;;
75512;SDS011;64090;49.770;18.760;2023-02-12T02:30:20;25.40;;;13.50;;
75512;SDS011;64090;49.770;18.760;2023-02-12T02:43:16;21.40;;;11.30;;
75512;SDS011;64090;49.770;18.760;2023-02-12T02:46:31;20.50;;;10.00;;
75512;SDS011;64090;49.770;18.760;2023-02-12T02:49:46;22.50;;;9.90;;
75512;SDS011;64090;49.770;18.760;2023-02-12T02:53:02;24.50;;;13.70;;
75512;SDS011;64090;49.770;18.760;2023-02-12T02:56:11;16.30;;;8.90;;
75512;SDS011;64090;49.770;18.760;2023-02-12T02:59:29;11.70;;;5.60;;
75512;SDS011;64090;49.770;18.760;2023-02-12T03:02:37;12.90;;;6.70;;
75512;SDS011;64090;49.770;18.760;2023-02-12T03:05:46;15.70;;;6.90;;
75512;SDS011;64090;49.770;18.760;2023-02-12T03:08:57;18.70;;;10.20;;
75512;SDS011;64090;49.770;18.760;2023-02-12T03:12:30;23.50;;;13.30;;
75512;SDS011;64090;49.770;18.760;2023-02-12T03:15:36;19.00;;;8.00;;
75512;SDS011;64090;49.770;18.760;2023-02-12T03:18:45;23.60;;;12.60;;
75512;SDS011;64090;49.770;18.760;2023-02-12T03:22:08;25.60;;;13.50;;
75512;SDS011;64090;49.770;18.760;2023-02-12T03:25:17;28.60;;;14.60;;
75512;SDS011;64090;49.770;18.760;2023-02-12T03:28:49;24.60;;;12.00;;
75512;SDS011;64090;49.770;18.760;2023-02-12T03:31:55;27.90;;;14.80;;
75512;SDS011;64090;49.770;18.760;2023-02-12T03:35:20;20.80;;;10.10;;
75512;SDS011;64090;49.770;18.760;2023-02-12T03:38:33;25.70;;;14.40;;
75512;SDS011;64090;49.770;18.760;2023-02-12T03:41:44;24.40;;;12.10;;
75512;SDS011;64090;49.770;18.760;2023-02-12T03:44:56;26.60;;;14.00;;
75512;SDS011;64090;49.770;18.760;2023-02-12T03:48:05;32.40;;;16.80;;
75512;SDS011;64090;49.770;18.760;2023-02-12T03:54:14;26.10;;;11.70;;
75512;SDS011;64090;49.770;18.760;2023-02-12T03:57:24;32.00;;;17.40;;
75512;SDS011;64090;49.770;18.760;2023-02-12T04:00:32;33.30;;;17.00;;
75512;SDS011;64090;49.770;18.760;2023-02-12T04:03:36;30.40;;;14.60;;
75512;SDS011;64090;49.770;18.760;2023-02-12T04:06:39;30.50;;;14.80;;
75512;SDS011;64090;49.770;18.760;2023-02-12T04:09:43;33.40;;;14.50;;
75512;SDS011;64090;49.770;18.760;2023-02-12T04:16:24;34.90;;;18.00;;
75512;SDS011;64090;49.770;18.760;2023-02-12T04:23:32;34.60;;;17.30;;
75512;SDS011;64090;49.770;18.760;2023-02-12T04:30:40;36.30;;;17.80;;
75512;SDS011;64090;49.770;18.760;2023-02-12T04:34:04;36.80;;;18.70;;
75512;SDS011;64090;49.770;18.760;2023-02-12T04:37:11;55.90;;;26.70;;
75512;SDS011;64090;49.770;18.760;2023-02-12T04:40:39;37.50;;;17.90;;
75512;SDS011;64090;49.770;18.760;2023-02-12T04:43:44;52.80;;;21.30;;
75512;SDS011;64090;49.770;18.760;2023-02-12T04:46:47;40.00;;;17.70;;
75512;SDS011;64090;49.770;18.760;2023-02-12T04:49:50;37.00;;;17.70;;
75512;SDS011;64090;49.770;18.760;2023-02-12T04:52:53;41.80;;;19.10;;
75512;SDS011;64090;49.770;18.760;2023-02-12T04:55:56;40.20;;;18.90;;
75512;SDS011;64090;49.770;18.760;2023-02-12T04:59:00;33.40;;;17.60;;
75512;SDS011;64090;49.770;18.760;2023-02-12T05:02:03;33.80;;;16.80;;
75512;SDS011;64090;49.770;18.760;2023-02-12T05:05:06;26.20;;;12.30;;
75512;SDS011;64090;49.770;18.760;2023-02-12T05:08:09;24.80;;;13.90;;
75512;SDS011;64090;49.770;18.760;2023-02-12T05:11:12;23.10;;;13.10;;
75512;SDS011;64090;49.770;18.760;2023-02-12T05:14:15;22.20;;;11.70;;
75512;SDS011;64090;49.770;18.760;2023-02-12T05:17:20;24.90;;;11.80;;
75512;SDS011;64090;49.770;18.760;2023-02-12T05:20:24;26.50;;;13.00;;
75512;SDS011;64090;49.770;18.760;2023-02-12T05:23:28;26.00;;;14.00;;
75512;SDS011;64090;49.770;18.760;2023-02-12T05:26:32;26.50;;;13.80;;
75512;SDS011;64090;49.770;18.760;2023-02-12T05:29:35;30.60;;;14.30;;
75512;SDS011;64090;49.770;18.760;2023-02-12T05:32:39;29.00;;;15.00;;
75512;SDS011;64090;49.770;18.760;2023-02-12T05:35:41;29.50;;;14.80;;
75512;SDS011;64090;49.770;18.760;2023-02-12T05:38:46;33.10;;;15.10;;
75512;SDS011;64090;49.770;18.760;2023-02-12T05:41:49;30.30;;;15.60;;
75512;SDS011;64090;49.770;18.760;2023-02-12T05:44:52;30.20;;;14.30;;
75512;SDS011;64090;49.770;18.760;2023-02-12T05:47:55;29.60;;;13.60;;
75512;SDS011;64090;49.770;18.760;2023-02-12T05:51:05;26.60;;;14.20;;
75512;SDS011;64090;49.770;18.760;2023-02-12T05:54:09;26.00;;;14.50;;
75512;SDS011;64090;49.770;18.760;2023-02-12T05:57:13;24.20;;;13.40;;
75512;SDS011;64090;49.770;18.760;2023-02-12T06:00:16;20.90;;;10.80;;
75512;SDS011;64090;49.770;18.760;2023-02-12T06:03:19;23.50;;;12.70;;
75512;SDS011;64090;49.770;18.760;2023-02-12T06:06:23;22.40;;;11.90;;
75512;SDS011;64090;49.770;18.760;2023-02-12T06:09:28;23.00;;;12.00;;
75512;SDS011;64090;49.770;18.760;2023-02-12T06:12:31;22.60;;;14.50;;
75512;SDS011;64090;49.770;18.760;2023-02-12T06:15:37;24.30;;;15.10;;
75512;SDS011;64090;49.770;18.760;2023-02-12T06:18:40;28.70;;;15.70;;
75512;SDS011;64090;49.770;18.760;2023-02-12T06:21:43;30.80;;;15.30;;
75512;SDS011;64090;49.770;18.760;2023-02-12T06:24:47;32.20;;;16.00;;
75512;SDS011;64090;49.770;18.760;2023-02-12T06:27:50;30.70;;;15.00;;
75512;SDS011;64090;49.770;18.760;2023-02-12T06:30:53;31.80;;;16.40;;
75512;SDS011;64090;49.770;18.760;2023-02-12T06:33:56;29.00;;;15.30;;
75512;SDS011;64090;49.770;18.760;2023-02-12T06:37:02;29.40;;;15.70;;
75512;SDS011;64090;49.770;18.760;2023-02-12T06:40:05;32.10;;;14.90;;
75512;SDS011;64090;49.770;18.760;2023-02-12T06:43:09;27.00;;;13.90;;
75512;SDS011;64090;49.770;18.760;2023-02-12T06:46:13;25.80;;;13.30;;
75512;SDS011;64090;49.770;18.760;2023-02-12T06:49:16;28.70;;;14.10;;
75512;SDS011;64090;49.770;18.760;2023-02-12T06:52:19;29.50;;;14.60;;
75512;SDS011;64090;49.770;18.760;2023-02-12T06:55:23;26.60;;;12.80;;
75512;SDS011;64090;49.770;18.760;2023-02-12T06:58:26;27.10;;;12.80;;
75512;SDS011;64090;49.770;18.760;2023-02-12T07:01:29;27.60;;;13.10;;
75512;SDS011;64090;49.770;18.760;2023-02-12T07:04:33;26.30;;;13.10;;
75512;SDS011;64090;49.770;18.760;2023-02-12T07:07:36;30.30;;;16.30;;
75512;SDS011;64090;49.770;18.760;2023-02-12T07:10:39;31.30;;;16.30;;
75512;SDS011;64090;49.770;18.760;2023-02-12T07:13:42;31.60;;;17.80;;
75512;SDS011;64090;49.770;18.760;2023-02-12T07:16:47;39.30;;;18.20;;
75512;SDS011;64090;49.770;18.760;2023-02-12T07:19:50;40.00;;;22.00;;
75512;SDS011;64090;49.770;18.760;2023-02-12T07:22:52;59.80;;;29.70;;
75512;SDS011;64090;49.770;18.760;2023-02-12T07:25:58;37.40;;;19.40;;
75512;SDS011;64090;49.770;18.760;2023-02-12T07:29:05;42.20;;;26.00;;
75512;SDS011;64090;49.770;18.760;2023-02-12T07:32:08;30.30;;;15.80;;
75512;SDS011;64090;49.770;18.760;2023-02-12T07:35:11;49.20;;;27.50;;
75512;SDS011;64090;49.770;18.760;2023-02-12T07:38:14;54.40;;;30.70;;
75512;SDS011;64090;49.770;18.760;2023-02-12T07:41:22;35.10;;;18.80;;
75512;SDS011;64090;49.770;18.760;2023-02-12T07:44:27;41.30;;;20.60;;
75512;SDS011;64090;49.770;18.760;2023-02-12T07:47:33;36.40;;;20.40;;
75512;SDS011;64090;49.770;18.760;2023-02-12T07:50:40;39.80;;;21.50;;
75512;SDS011;64090;49.770;18.760;2023-02-12T07:53:42;26.40;;;13.00;;
75512;SDS011;64090;49.770;18.760;2023-02-12T07:56:45;31.20;;;15.70;;
75512;SDS011;64090;49.770;18.760;2023-02-12T07:59:49;29.90;;;15.90;;
75512;SDS011;64090;49.770;18.760;2023-02-12T08:02:52;35.30;;;17.90;;
75512;SDS011;64090;49.770;18.760;2023-02-12T08:05:56;34.00;;;17.30;;
75512;SDS011;64090;49.770;18.760;2023-02-12T08:09:00;27.30;;;14.30;;
75512;SDS011;64090;49.770;18.760;2023-02-12T08:12:05;37.50;;;17.10;;
75512;SDS011;64090;49.770;18.760;2023-02-12T08:15:08;33.70;;;17.50;;
75512;SDS011;64090;49.770;18.760;2023-02-12T08:18:11;35.30;;;19.80;;
75512;SDS011;64090;49.770;18.760;2023-02-12T08:21:15;51.50;;;25.20;;
75512;SDS011;64090;49.770;18.760;2023-02-12T08:24:20;41.60;;;22.80;;
75512;SDS011;64090;49.770;18.760;2023-02-12T08:27:24;35.20;;;16.80;;
75512;SDS011;64090;49.770;18.760;2023-02-12T08:30:26;38.00;;;21.80;;
75512;SDS011;64090;49.770;18.760;2023-02-12T08:33:30;38.20;;;19.50;;
75512;SDS011;64090;49.770;18.760;2023-02-12T08:36:36;42.80;;;22.80;;
75512;SDS011;64090;49.770;18.760;2023-02-12T08:39:41;39.80;;;21.30;;
75512;SDS011;64090;49.770;18.760;2023-02-12T08:42:44;32.30;;;18.30;;
75512;SDS011;64090;49.770;18.760;2023-02-12T08:45:47;32.00;;;18.50;;
75512;SDS011;64090;49.770;18.760;2023-02-12T08:48:52;33.20;;;17.40;;
75512;SDS011;64090;49.770;18.760;2023-02-12T08:51:57;24.80;;;15.70;;
75512;SDS011;64090;49.770;18.760;2023-02-12T08:55:03;37.20;;;18.00;;
75512;SDS011;64090;49.770;18.760;2023-02-12T08:58:06;32.10;;;19.00;;
75512;SDS011;64090;49.770;18.760;2023-02-12T09:01:10;34.30;;;18.20;;
75512;SDS011;64090;49.770;18.760;2023-02-12T09:04:16;51.00;;;24.80;;
75512;SDS011;64090;49.770;18.760;2023-02-12T09:07:23;38.30;;;18.70;;
75512;SDS011;64090;49.770;18.760;2023-02-12T09:10:26;39.30;;;20.50;;
75512;SDS011;64090;49.770;18.760;2023-02-12T09:13:29;37.80;;;18.50;;
75512;SDS011;64090;49.770;18.760;2023-02-12T09:16:33;32.90;;;19.40;;
75512;SDS011;64090;49.770;18.760;2023-02-12T09:19:37;30.40;;;17.50;;
75512;SDS011;64090;49.770;18.760;2023-02-12T09:22:40;32.20;;;18.20;;
75512;SDS011;64090;49.770;18.760;2023-02-12T09:25:44;32.90;;;19.10;;
75512;SDS011;64090;49.770;18.760;2023-02-12T09:28:48;28.70;;;17.40;;
75512;SDS011;64090;49.770;18.760;2023-02-12T09:31:52;32.40;;;17.10;;
75512;SDS011;64090;49.770;18.760;2023-02-12T09:34:56;30.20;;;16.30;;
75512;SDS011;64090;49.770;18.760;2023-02-12T09:37:58;24.40;;;14.10;;
75512;SDS011;64090;49.770;18.760;2023-02-12T09:48:28;23.40;;;12.90;;
75512;SDS011;64090;49.770;18.760;2023-02-12T09:51:55;30.20;;;17.10;;
75512;SDS011;64090;49.770;18.760;2023-02-12T09:54:59;30.30;;;18.90;;
75512;SDS011;64090;49.770;18.760;2023-02-12T09:58:03;34.10;;;19.10;;
75512;SDS011;64090;49.770;18.760;2023-02-12T10:01:16;30.20;;;16.40;;
75512;SDS011;64090;49.770;18.760;2023-02-12T10:04:21;25.90;;;15.40;;
75512;SDS011;64090;49.770;18.760;2023-02-12T10:07:32;25.00;;;15.40;;
75512;SDS011;64090;49.770;18.760;2023-02-12T10:10:50;20.60;;;13.20;;
75512;SDS011;64090;49.770;18.760;2023-02-12T10:23:38;34.10;;;21.70;;
75512;SDS011;64090;49.770;18.760;2023-02-12T10:26:54;20.00;;;13.40;;
75512;SDS011;64090;49.770;18.760;2023-02-12T10:30:03;24.70;;;15.60;;
75512;SDS011;64090;49.770;18.760;2023-02-12T10:33:30;22.40;;;13.80;;
75512;SDS011;64090;49.770;18.760;2023-02-12T10:36:41;23.70;;;15.20;;
75512;SDS011;64090;49.770;18.760;2023-02-12T10:39:49;24.60;;;15.40;;
75512;SDS011;64090;49.770;18.760;2023-02-12T10:46:02;35.80;;;22.10;;
75512;SDS011;64090;49.770;18.760;2023-02-12T10:49:05;22.50;;;13.20;;
75512;SDS011;64090;49.770;18.760;2023-02-12T10:55:37;19.00;;;12.80;;
75512;SDS011;64090;49.770;18.760;2023-02-12T10:58:41;23.20;;;15.30;;
75512;SDS011;64090;49.770;18.760;2023-02-12T11:01:53;31.80;;;23.00;;
75512;SDS011;64090;49.770;18.760;2023-02-12T11:04:57;18.30;;;11.10;;
75512;SDS011;64090;49.770;18.760;2023-02-12T11:08:03;23.10;;;13.30;;
75512;SDS011;64090;49.770;18.760;2023-02-12T11:11:15;24.00;;;15.30;;
75512;SDS011;64090;49.770;18.760;2023-02-12T11:14:23;21.60;;;11.50;;
75512;SDS011;64090;49.770;18.760;2023-02-12T11:17:27;20.70;;;11.60;;
75512;SDS011;64090;49.770;18.760;2023-02-12T11:20:40;28.90;;;18.20;;
75512;SDS011;64090;49.770;18.760;2023-02-12T11:23:51;42.20;;;22.20;;
75512;SDS011;64090;49.770;18.760;2023-02-12T11:27:07;21.00;;;12.60;;
75512;SDS011;64090;49.770;18.760;2023-02-12T11:30:30;34.70;;;21.50;;
75512;SDS011;64090;49.770;18.760;2023-02-12T11:33:34;18.70;;;12.50;;
75512;SDS011;64090;49.770;18.760;2023-02-12T11:36:45;27.70;;;16.20;;
75512;SDS011;64090;49.770;18.760;2023-02-12T11:39:51;17.00;;;11.40;;
75512;SDS011;64090;49.770;18.760;2023-02-12T11:42:58;16.20;;;10.00;;
75512;SDS011;64090;49.770;18.760;2023-02-12T11:46:03;18.80;;;10.10;;
75512;SDS011;64090;49.770;18.760;2023-02-12T11:49:12;16.40;;;10.50;;
75512;SDS011;64090;49.770;18.760;2023-02-12T11:52:47;20.20;;;11.30;;
75512;SDS011;64090;49.770;18.760;2023-02-12T11:55:57;16.70;;;9.80;;
75512;SDS011;64090;49.770;18.760;2023-02-12T11:59:08;18.70;;;12.10;;
75512;SDS011;64090;49.770;18.760;2023-02-12T12:02:25;14.50;;;8.60;;
75512;SDS011;64090;49.770;18.760;2023-02-12T12:05:35;19.90;;;10.60;;
75512;SDS011;64090;49.770;18.760;2023-02-12T12:08:47;17.40;;;10.50;;
75512;SDS011;64090;49.770;18.760;2023-02-12T12:15:29;16.20;;;10.80;;
75512;SDS011;64090;49.770;18.760;2023-02-12T12:18:58;17.50;;;10.60;;
75512;SDS011;64090;49.770;18.760;2023-02-12T12:22:46;17.80;;;10.10;;
75512;SDS011;64090;49.770;18.760;2023-02-12T12:26:17;19.00;;;12.30;;
75512;SDS011;64090;49.770;18.760;2023-02-12T12:29:27;15.00;;;9.30;;
75512;SDS011;64090;49.770;18.760;2023-02-12T12:32:45;17.00;;;11.00;;
75512;SDS011;64090;49.770;18.760;2023-02-12T12:39:20;13.40;;;9.30;;
75512;SDS011;64090;49.770;18.760;2023-02-12T12:45:41;51.50;;;26.50;;
75512;SDS011;64090;49.770;18.760;2023-02-12T12:52:37;15.60;;;9.10;;
75512;SDS011;64090;49.770;18.760;2023-02-12T12:56:02;16.40;;;10.10;;
75512;SDS011;64090;49.770;18.760;2023-02-12T13:09:53;14.80;;;9.00;;
75512;SDS011;64090;49.770;18.760;2023-02-12T13:13:08;16.40;;;11.10;;
75512;SDS011;64090;49.770;18.760;2023-02-12T13:16:29;20.00;;;10.90;;
75512;SDS011;64090;49.770;18.760;2023-02-12T13:23:03;19.50;;;11.90;;
75512;SDS011;64090;49.770;18.760;2023-02-12T13:26:28;18.70;;;10.70;;
75512;SDS011;64090;49.770;18.760;2023-02-12T13:29:40;20.30;;;12.00;;
75512;SDS011;64090;49.770;18.760;2023-02-12T13:36:23;18.40;;;9.70;;
75512;SDS011;64090;49.770;18.760;2023-02-12T13:39:28;17.50;;;10.00;;
75512;SDS011;64090;49.770;18.760;2023-02-12T13:42:41;49.40;;;23.50;;
75512;SDS011;64090;49.770;18.760;2023-02-12T13:45:57;22.50;;;12.30;;
75512;SDS011;64090;49.770;18.760;2023-02-12T13:53:00;25.00;;;12.60;;
75512;SDS011;64090;49.770;18.760;2023-02-12T13:56:02;19.30;;;9.40;;
75512;SDS011;64090;49.770;18.760;2023-02-12T14:05:39;20.30;;;12.30;;
75512;SDS011;64090;49.770;18.760;2023-02-12T14:08:43;35.50;;;20.60;;
75512;SDS011;64090;49.770;18.760;2023-02-12T14:11:49;17.30;;;10.30;;
75512;SDS011;64090;49.770;18.760;2023-02-12T14:18:22;19.10;;;10.30;;
75512;SDS011;64090;49.770;18.760;2023-02-12T14:21:38;16.10;;;9.90;;
75512;SDS011;64090;49.770;18.760;2023-02-12T14:24:47;22.20;;;12.40;;
75512;SDS011;64090;49.770;18.760;2023-02-12T14:37:32;21.10;;;12.00;;
75512;SDS011;64090;49.770;18.760;2023-02-12T14:40:43;20.30;;;12.00;;
75512;SDS011;64090;49.770;18.760;2023-02-12T14:43:50;22.10;;;12.50;;
75512;SDS011;64090;49.770;18.760;2023-02-12T14:47:04;21.70;;;11.70;;
75512;SDS011;64090;49.770;18.760;2023-02-12T14:50:17;27.60;;;13.80;;
75512;SDS011;64090;49.770;18.760;2023-02-12T14:53:26;24.60;;;12.70;;
75512;SDS011;64090;49.770;18.760;2023-02-12T14:56:38;29.30;;;16.00;;
75512;SDS011;64090;49.770;18.760;2023-02-12T14:59:47;28.40;;;15.20;;
75512;SDS011;64090;49.770;18.760;2023-02-12T15:02:58;24.40;;;12.60;;
75512;SDS011;64090;49.770;18.760;2023-02-12T15:06:10;23.80;;;13.30;;
75512;SDS011;64090;49.770;18.760;2023-02-12T15:09:24;25.10;;;13.50;;
75512;SDS011;64090;49.770;18.760;2023-02-12T15:12:34;25.80;;;14.10;;
75512;SDS011;64090;49.770;18.760;2023-02-12T15:15:46;29.70;;;16.00;;
75512;SDS011;64090;49.770;18.760;2023-02-12T15:19:16;30.10;;;15.10;;
75512;SDS011;64090;49.770;18.760;2023-02-12T15:22:41;26.20;;;16.10;;
75512;SDS011;64090;49.770;18.760;2023-02-12T15:25:44;30.80;;;16.70;;
75512;SDS011;64090;49.770;18.760;2023-02-12T15:28:48;28.60;;;16.50;;
75512;SDS011;64090;49.770;18.760;2023-02-12T15:31:56;28.50;;;16.50;;
75512;SDS011;64090;49.770;18.760;2023-02-12T15:35:02;36.00;;;17.90;;
75512;SDS011;64090;49.770;18.760;2023-02-12T15:38:26;35.90;;;18.40;;
75512;SDS011;64090;49.770;18.760;2023-02-12T15:41:36;36.40;;;19.60;;
75512;SDS011;64090;49.770;18.760;2023-02-12T15:44:41;40.20;;;19.80;;
75512;SDS011;64090;49.770;18.760;2023-02-12T15:48:20;36.30;;;21.30;;
75512;SDS011;64090;49.770;18.760;2023-02-12T15:51:34;37.90;;;19.10;;
75512;SDS011;64090;49.770;18.760;2023-02-12T15:54:45;33.70;;;18.80;;
75512;SDS011;64090;49.770;18.760;2023-02-12T15:57:57;44.70;;;21.20;;
75512;SDS011;64090;49.770;18.760;2023-02-12T16:01:03;53.60;;;25.20;;
75512;SDS011;64090;49.770;18.760;2023-02-12T16:04:07;45.60;;;22.30;;
75512;SDS011;64090;49.770;18.760;2023-02-12T16:07:11;50.10;;;23.80;;
75512;SDS011;64090;49.770;18.760;2023-02-12T16:10:15;50.80;;;26.30;;
75512;SDS011;64090;49.770;18.760;2023-02-12T16:13:31;45.10;;;23.90;;
75512;SDS011;64090;49.770;18.760;2023-02-12T16:16:43;38.80;;;22.10;;
75512;SDS011;64090;49.770;18.760;2023-02-12T16:19:58;49.50;;;22.60;;
75512;SDS011;64090;49.770;18.760;2023-02-12T16:23:04;42.90;;;22.10;;
75512;SDS011;64090;49.770;18.760;2023-02-12T16:26:14;43.90;;;24.20;;
75512;SDS011;64090;49.770;18.760;2023-02-12T16:29:19;44.20;;;23.70;;
75512;SDS011;64090;49.770;18.760;2023-02-12T16:35:31;60.70;;;30.40;;
75512;SDS011;64090;49.770;18.760;2023-02-12T16:38:43;51.40;;;32.10;;
75512;SDS011;64090;49.770;18.760;2023-02-12T16:41:55;56.90;;;29.10;;
75512;SDS011;64090;49.770;18.760;2023-02-12T16:44:58;54.60;;;28.20;;
75512;SDS011;64090;49.770;18.760;2023-02-12T16:51:31;57.20;;;28.80;;
75512;SDS011;64090;49.770;18.760;2023-02-12T16:54:36;59.80;;;29.70;;
75512;SDS011;64090;49.770;18.760;2023-02-12T16:57:39;97.10;;;43.30;;
75512;SDS011;64090;49.770;18.760;2023-02-12T17:00:42;89.50;;;40.20;;
75512;SDS011;64090;49.770;18.760;2023-02-12T17:03:46;111.20;;;49.10;;
75512;SDS011;64090;49.770;18.760;2023-02-12T17:06:52;72.30;;;34.70;;
75512;SDS011;64090;49.770;18.760;2023-02-12T17:09:55;57.00;;;30.00;;
75512;SDS011;64090;49.770;18.760;2023-02-12T17:12:58;64.00;;;33.40;;
75512;SDS011;64090;49.770;18.760;2023-02-12T17:16:01;72.80;;;37.00;;
75512;SDS011;64090;49.770;18.760;2023-02-12T17:19:04;65.90;;;34.50;;
75512;SDS011;64090;49.770;18.760;2023-02-12T17:22:19;80.90;;;39.00;;
75512;SDS011;64090;49.770;18.760;2023-02-12T17:25:24;247.30;;;89.10;;
75512;SDS011;64090;49.770;18.760;2023-02-12T17:28:28;301.30;;;107.90;;
75512;SDS011;64090;49.770;18.760;2023-02-12T17:31:32;260.20;;;96.40;;
75512;SDS011;64090;49.770;18.760;2023-02-12T17:34:36;132.20;;;54.90;;
75512;SDS011;64090;49.770;18.760;2023-02-12T17:37:50;89.30;;;44.00;;
75512;SDS011;64090;49.770;18.760;2023-02-12T17:40:53;93.00;;;44.10;;
75512;SDS011;64090;49.770;18.760;2023-02-12T17:43:56;74.90;;;43.10;;
75512;SDS011;64090;49.770;18.760;2023-02-12T17:46:59;77.00;;;38.10;;
75512;SDS011;64090;49.770;18.760;2023-02-12T17:50:02;64.10;;;29.60;;
75512;SDS011;64090;49.770;18.760;2023-02-12T17:53:06;66.40;;;34.20;;
75512;SDS011;64090;49.770;18.760;2023-02-12T17:56:11;73.90;;;37.70;;
75512;SDS011;64090;49.770;18.760;2023-02-12T17:59:15;71.50;;;37.40;;
75512;SDS011;64090;49.770;18.760;2023-02-12T18:02:18;80.10;;;40.00;;
75512;SDS011;64090;49.770;18.760;2023-02-12T18:05:21;78.00;;;41.20;;
75512;SDS011;64090;49.770;18.760;2023-02-12T18:08:26;95.30;;;44.60;;
75512;SDS011;64090;49.770;18.760;2023-02-12T18:11:30;147.90;;;59.30;;
75512;SDS011;64090;49.770;18.760;2023-02-12T18:14:34;195.20;;;71.50;;
75512;SDS011;64090;49.770;18.760;2023-02-12T18:17:39;199.00;;;77.20;;
75512;SDS011;64090;49.770;18.760;2023-02-12T18:20:44;155.00;;;62.40;;
75512;SDS011;64090;49.770;18.760;2023-02-12T18:23:47;150.40;;;62.00;;
75512;SDS011;64090;49.770;18.760;2023-02-12T18:26:50;133.90;;;60.10;;
75512;SDS011;64090;49.770;18.760;2023-02-12T18:29:53;126.20;;;60.10;;
75512;SDS011;64090;49.770;18.760;2023-02-12T18:32:58;103.40;;;47.50;;
75512;SDS011;64090;49.770;18.760;2023-02-12T18:36:03;98.50;;;46.90;;
75512;SDS011;64090;49.770;18.760;2023-02-12T18:39:07;80.20;;;40.10;;
75512;SDS011;64090;49.770;18.760;2023-02-12T18:42:10;64.80;;;32.00;;
75512;SDS011;64090;49.770;18.760;2023-02-12T18:45:15;71.70;;;35.80;;
75512;SDS011;64090;49.770;18.760;2023-02-12T18:48:20;71.70;;;34.80;;
75512;SDS011;64090;49.770;18.760;2023-02-12T18:51:24;66.50;;;32.00;;
75512;SDS011;64090;49.770;18.760;2023-02-12T18:54:30;76.70;;;34.90;;
75512;SDS011;64090;49.770;18.760;2023-02-12T18:57:57;81.80;;;38.60;;
75512;SDS011;64090;49.770;18.760;2023-02-12T19:02:24;78.30;;;36.20;;
75512;SDS011;64090;49.770;18.760;2023-02-12T19:05:41;74.60;;;37.20;;
75512;SDS011;64090;49.770;18.760;2023-02-12T19:08:47;66.20;;;33.40;;
75512;SDS011;64090;49.770;18.760;2023-02-12T19:11:54;71.20;;;36.40;;
75512;SDS011;64090;49.770;18.760;2023-02-12T19:15:21;66.10;;;34.40;;
75512;SDS011;64090;49.770;18.760;2023-02-12T19:19:08;76.00;;;40.30;;
75512;SDS011;64090;49.770;18.760;2023-02-12T19:22:40;107.20;;;46.30;;
75512;SDS011;64090;49.770;18.760;2023-02-12T19:26:06;119.90;;;51.10;;
75512;SDS011;64090;49.770;18.760;2023-02-12T19:29:13;76.40;;;37.40;;
75512;SDS011;64090;49.770;18.760;2023-02-12T19:32:18;68.00;;;35.20;;
75512;SDS011;64090;49.770;18.760;2023-02-12T19:35:24;79.80;;;40.70;;
75512;SDS011;64090;49.770;18.760;2023-02-12T19:38:45;73.80;;;33.10;;
75512;SDS011;64090;49.770;18.760;2023-02-12T19:42:15;60.10;;;31.80;;
75512;SDS011;64090;49.770;18.760;2023-02-12T19:46:04;62.00;;;30.70;;
75512;SDS011;64090;49.770;18.760;2023-02-12T19:49:29;54.60;;;28.10;;
75512;SDS011;64090;49.770;18.760;2023-02-12T19:53:17;59.60;;;32.00;;
75512;SDS011;64090;49.770;18.760;2023-02-12T19:57:08;64.30;;;33.00;;
75512;SDS011;64090;49.770;18.760;2023-02-12T20:00:22;76.80;;;35.40;;